sensor_id;sensor_type;location;lat;lon;timestamp;P1;durP1;ratioP1;P2;durP2;ratioP2
21837;SDS011;11081;45.946;6.140;2023-07-08T00:00:16;5.78;;;3.85;;
21837;SDS011;11081;45.946;6.140;2023-07-08T00:02:47;9.70;;;4.25;;
21837;SDS011;11081;45.946;6.140;2023-07-08T00:05:16;10.45;;;4.22;;
21837;SDS011;11081;45.946;6.140;2023-07-08T00:07:45;12.15;;;4.30;;
21837;SDS011;11081;45.946;6.140;2023-07-08T00:10:15;7.32;;;3.80;;
21837;SDS011;11081;45.946;6.140;2023-07-08T00:12:44;8.90;;;4.28;;
21837;SDS011;11081;45.946;6.140;2023-07-08T00:15:16;8.80;;;4.13;;
21837;SDS011;11081;45.946;6.140;2023-07-08T00:17:45;10.02;;;4.30;;
21837;SDS011;11081;45.946;6.140;2023-07-08T00:20:14;7.50;;;4.55;;
21837;SDS011;11081;45.946;6.140;2023-07-08T00:22:44;8.93;;;4.80;;
21837;SDS011;11081;45.946;6.140;2023-07-08T00:25:13;10.48;;;4.40;;
21837;SDS011;11081;45.946;6.140;2023-07-08T00:27:42;10.88;;;4.63;;
21837;SDS011;11081;45.946;6.140;2023-07-08T00:30:19;7.63;;;4.22;;
21837;SDS011;11081;45.946;6.140;2023-07-08T00:32:48;12.02;;;4.32;;
21837;SDS011;11081;45.946;6.140;2023-07-08T00:35:21;9.15;;;4.47;;
21837;SDS011;11081;45.946;6.140;2023-07-08T00:37:51;8.95;;;4.38;;
21837;SDS011;11081;45.946;6.140;2023-07-08T00:40:21;9.05;;;4.35;;
21837;SDS011;11081;45.946;6.140;2023-07-08T00:42:51;12.93;;;4.28;;
21837;SDS011;11081;45.946;6.140;2023-07-08T00:45:24;9.93;;;4.50;;
21837;SDS011;11081;45.946;6.140;2023-07-08T00:48:13;6.90;;;4.05;;
21837;SDS011;11081;45.946;6.140;2023-07-08T00:50:46;8.23;;;4.07;;
21837;SDS011;11081;45.946;6.140;2023-07-08T00:56:02;8.70;;;3.50;;
21837;SDS011;11081;45.946;6.140;2023-07-08T00:58:37;9.13;;;4.38;;
21837;SDS011;11081;45.946;6.140;2023-07-08T01:01:12;11.70;;;3.80;;
21837;SDS011;11081;45.946;6.140;2023-07-08T01:03:43;7.75;;;4.03;;
21837;SDS011;11081;45.946;6.140;2023-07-08T01:06:16;10.00;;;4.03;;
21837;SDS011;11081;45.946;6.140;2023-07-08T01:08:45;8.70;;;3.88;;
21837;SDS011;11081;45.946;6.140;2023-07-08T01:11:16;7.25;;;4.15;;
21837;SDS011;11081;45.946;6.140;2023-07-08T01:13:48;9.77;;;4.13;;
21837;SDS011;11081;45.946;6.140;2023-07-08T01:16:19;9.35;;;3.92;;
21837;SDS011;11081;45.946;6.140;2023-07-08T01:18:49;9.38;;;4.20;;
21837;SDS011;11081;45.946;6.140;2023-07-08T01:21:28;9.07;;;4.30;;
21837;SDS011;11081;45.946;6.140;2023-07-08T01:24:02;11.60;;;4.75;;
21837;SDS011;11081;45.946;6.140;2023-07-08T01:26:33;10.52;;;4.13;;
21837;SDS011;11081;45.946;6.140;2023-07-08T01:29:04;8.60;;;4.30;;
21837;SDS011;11081;45.946;6.140;2023-07-08T01:31:33;8.40;;;4.18;;
21837;SDS011;11081;45.946;6.140;2023-07-08T01:34:03;7.28;;;4.40;;
21837;SDS011;11081;45.946;6.140;2023-07-08T01:36:33;8.75;;;3.85;;
21837;SDS011;11081;45.946;6.140;2023-07-08T01:39:08;5.57;;;3.83;;
21837;SDS011;11081;45.946;6.140;2023-07-08T01:41:39;8.50;;;4.00;;
21837;SDS011;11081;45.946;6.140;2023-07-08T01:44:18;8.57;;;4.18;;
21837;SDS011;11081;45.946;6.140;2023-07-08T01:46:49;7.80;;;4.25;;
21837;SDS011;11081;45.946;6.140;2023-07-08T01:49:18;9.35;;;4.25;;
21837;SDS011;11081;45.946;6.140;2023-07-08T01:51:47;7.25;;;4.50;;
21837;SDS011;11081;45.946;6.140;2023-07-08T01:54:17;7.47;;;4.43;;
21837;SDS011;11081;45.946;6.140;2023-07-08T01:56:45;10.80;;;4.25;;
21837;SDS011;11081;45.946;6.140;2023-07-08T01:59:13;6.47;;;4.00;;
21837;SDS011;11081;45.946;6.140;2023-07-08T02:01:41;8.30;;;4.00;;
21837;SDS011;11081;45.946;6.140;2023-07-08T02:04:09;9.20;;;4.30;;
21837;SDS011;11081;45.946;6.140;2023-07-08T02:06:39;10.93;;;4.47;;
21837;SDS011;11081;45.946;6.140;2023-07-08T02:09:08;8.85;;;3.67;;
21837;SDS011;11081;45.946;6.140;2023-07-08T02:11:37;5.70;;;3.92;;
21837;SDS011;11081;45.946;6.140;2023-07-08T02:14:05;11.43;;;4.78;;
21837;SDS011;11081;45.946;6.140;2023-07-08T02:16:34;10.90;;;4.63;;
21837;SDS011;11081;45.946;6.140;2023-07-08T02:19:02;6.82;;;4.10;;
21837;SDS011;11081;45.946;6.140;2023-07-08T02:21:30;10.73;;;4.13;;
21837;SDS011;11081;45.946;6.140;2023-07-08T02:23:59;7.85;;;4.18;;
21837;SDS011;11081;45.946;6.140;2023-07-08T02:26:28;8.65;;;4.00;;
21837;SDS011;11081;45.946;6.140;2023-07-08T02:28:59;13.43;;;3.83;;
21837;SDS011;11081;45.946;6.140;2023-07-08T02:31:29;8.60;;;4.13;;
21837;SDS011;11081;45.946;6.140;2023-07-08T02:33:57;8.48;;;4.43;;
21837;SDS011;11081;45.946;6.140;2023-07-08T02:36:26;12.80;;;3.75;;
21837;SDS011;11081;45.946;6.140;2023-07-08T02:38:54;8.45;;;4.18;;
21837;SDS011;11081;45.946;6.140;2023-07-08T02:41:22;9.85;;;4.63;;
21837;SDS011;11081;45.946;6.140;2023-07-08T02:43:50;9.18;;;4.43;;
21837;SDS011;11081;45.946;6.140;2023-07-08T02:46:20;8.15;;;4.43;;
21837;SDS011;11081;45.946;6.140;2023-07-08T02:48:48;7.32;;;4.15;;
21837;SDS011;11081;45.946;6.140;2023-07-08T02:51:16;6.38;;;4.10;;
21837;SDS011;11081;45.946;6.140;2023-07-08T02:53:44;9.80;;;4.20;;
21837;SDS011;11081;45.946;6.140;2023-07-08T02:56:11;12.20;;;5.07;;
21837;SDS011;11081;45.946;6.140;2023-07-08T02:58:40;8.75;;;4.38;;
21837;SDS011;11081;45.946;6.140;2023-07-08T03:01:07;15.93;;;5.15;;
21837;SDS011;11081;45.946;6.140;2023-07-08T03:03:38;6.20;;;4.40;;
21837;SDS011;11081;45.946;6.140;2023-07-08T03:06:06;14.52;;;5.10;;
21837;SDS011;11081;45.946;6.140;2023-07-08T03:08:34;7.72;;;4.80;;
21837;SDS011;11081;45.946;6.140;2023-07-08T03:11:04;7.15;;;4.13;;
21837;SDS011;11081;45.946;6.140;2023-07-08T03:13:34;7.40;;;4.28;;
21837;SDS011;11081;45.946;6.140;2023-07-08T03:16:03;7.03;;;4.50;;
21837;SDS011;11081;45.946;6.140;2023-07-08T03:18:41;7.75;;;4.38;;
21837;SDS011;11081;45.946;6.140;2023-07-08T03:21:14;15.88;;;4.20;;
21837;SDS011;11081;45.946;6.140;2023-07-08T03:23:44;7.50;;;4.53;;
21837;SDS011;11081;45.946;6.140;2023-07-08T03:26:12;11.25;;;4.68;;
21837;SDS011;11081;45.946;6.140;2023-07-08T03:28:44;10.32;;;4.45;;
21837;SDS011;11081;45.946;6.140;2023-07-08T03:31:13;7.25;;;4.25;;
21837;SDS011;11081;45.946;6.140;2023-07-08T03:33:42;9.07;;;4.32;;
21837;SDS011;11081;45.946;6.140;2023-07-08T03:36:12;9.30;;;4.68;;
21837;SDS011;11081;45.946;6.140;2023-07-08T03:38:49;7.35;;;4.50;;
21837;SDS011;11081;45.946;6.140;2023-07-08T03:41:18;11.30;;;4.18;;
21837;SDS011;11081;45.946;6.140;2023-07-08T03:43:48;13.57;;;4.43;;
21837;SDS011;11081;45.946;6.140;2023-07-08T03:46:18;9.05;;;4.43;;
21837;SDS011;11081;45.946;6.140;2023-07-08T03:48:49;12.07;;;4.40;;
21837;SDS011;11081;45.946;6.140;2023-07-08T03:51:17;9.10;;;4.03;;
21837;SDS011;11081;45.946;6.140;2023-07-08T03:53:49;10.05;;;4.18;;
21837;SDS011;11081;45.946;6.140;2023-07-08T03:56:18;7.72;;;4.28;;
21837;SDS011;11081;45.946;6.140;2023-07-08T03:58:46;9.07;;;4.82;;
21837;SDS011;11081;45.946;6.140;2023-07-08T04:01:14;10.60;;;4.07;;
21837;SDS011;11081;45.946;6.140;2023-07-08T04:03:44;7.53;;;4.72;;
21837;SDS011;11081;45.946;6.140;2023-07-08T04:06:14;12.50;;;4.43;;
21837;SDS011;11081;45.946;6.140;2023-07-08T04:08:42;8.40;;;5.13;;
21837;SDS011;11081;45.946;6.140;2023-07-08T04:11:11;11.45;;;5.25;;
21837;SDS011;11081;45.946;6.140;2023-07-08T04:13:40;8.45;;;4.47;;
21837;SDS011;11081;45.946;6.140;2023-07-08T04:16:10;8.77;;;4.85;;
21837;SDS011;11081;45.946;6.140;2023-07-08T04:18:46;12.00;;;5.10;;
21837;SDS011;11081;45.946;6.140;2023-07-08T04:21:18;9.05;;;4.57;;
21837;SDS011;11081;45.946;6.140;2023-07-08T04:23:48;9.80;;;4.93;;
21837;SDS011;11081;45.946;6.140;2023-07-08T04:26:16;10.23;;;5.63;;
21837;SDS011;11081;45.946;6.140;2023-07-08T04:28:45;8.98;;;4.43;;
21837;SDS011;11081;45.946;6.140;2023-07-08T04:31:13;10.50;;;4.97;;
21837;SDS011;11081;45.946;6.140;2023-07-08T04:33:41;8.95;;;4.88;;
21837;SDS011;11081;45.946;6.140;2023-07-08T04:36:11;8.27;;;4.63;;
21837;SDS011;11081;45.946;6.140;2023-07-08T04:38:41;15.48;;;5.07;;
21837;SDS011;11081;45.946;6.140;2023-07-08T04:41:13;11.93;;;4.50;;
21837;SDS011;11081;45.946;6.140;2023-07-08T04:43:41;9.32;;;4.57;;
21837;SDS011;11081;45.946;6.140;2023-07-08T04:46:14;9.98;;;4.22;;
21837;SDS011;11081;45.946;6.140;2023-07-08T04:48:46;7.72;;;4.82;;
21837;SDS011;11081;45.946;6.140;2023-07-08T04:51:14;9.18;;;4.68;;
21837;SDS011;11081;45.946;6.140;2023-07-08T04:53:44;9.85;;;4.93;;
21837;SDS011;11081;45.946;6.140;2023-07-08T04:56:12;7.65;;;4.85;;
21837;SDS011;11081;45.946;6.140;2023-07-08T04:58:40;12.52;;;5.30;;
21837;SDS011;11081;45.946;6.140;2023-07-08T05:01:08;9.82;;;4.88;;
21837;SDS011;11081;45.946;6.140;2023-07-08T05:03:36;11.82;;;5.05;;
21837;SDS011;11081;45.946;6.140;2023-07-08T05:06:04;10.50;;;4.88;;
21837;SDS011;11081;45.946;6.140;2023-07-08T05:08:32;7.68;;;4.90;;
21837;SDS011;11081;45.946;6.140;2023-07-08T05:11:02;9.43;;;4.63;;
21837;SDS011;11081;45.946;6.140;2023-07-08T05:13:30;9.18;;;4.82;;
21837;SDS011;11081;45.946;6.140;2023-07-08T05:15:59;10.07;;;4.97;;
21837;SDS011;11081;45.946;6.140;2023-07-08T05:18:27;10.13;;;4.32;;
21837;SDS011;11081;45.946;6.140;2023-07-08T05:20:55;13.27;;;4.90;;
21837;SDS011;11081;45.946;6.140;2023-07-08T05:23:24;10.23;;;4.35;;
21837;SDS011;11081;45.946;6.140;2023-07-08T05:25:52;8.68;;;4.95;;
21837;SDS011;11081;45.946;6.140;2023-07-08T05:28:22;7.15;;;3.85;;
21837;SDS011;11081;45.946;6.140;2023-07-08T05:30:52;10.60;;;4.68;;
21837;SDS011;11081;45.946;6.140;2023-07-08T05:33:21;9.35;;;4.82;;
21837;SDS011;11081;45.946;6.140;2023-07-08T05:35:50;9.98;;;4.22;;
21837;SDS011;11081;45.946;6.140;2023-07-08T05:38:18;5.93;;;4.20;;
21837;SDS011;11081;45.946;6.140;2023-07-08T05:40:48;9.77;;;4.60;;
21837;SDS011;11081;45.946;6.140;2023-07-08T05:43:16;9.73;;;4.43;;
21837;SDS011;11081;45.946;6.140;2023-07-08T05:45:46;10.23;;;4.10;;
21837;SDS011;11081;45.946;6.140;2023-07-08T05:48:31;8.77;;;5.00;;
21837;SDS011;11081;45.946;6.140;2023-07-08T05:50:59;9.77;;;4.57;;
21837;SDS011;11081;45.946;6.140;2023-07-08T05:53:27;8.80;;;4.97;;
21837;SDS011;11081;45.946;6.140;2023-07-08T05:55:55;8.60;;;4.80;;
21837;SDS011;11081;45.946;6.140;2023-07-08T05:58:23;7.15;;;4.18;;
21837;SDS011;11081;45.946;6.140;2023-07-08T06:00:56;12.10;;;4.38;;
21837;SDS011;11081;45.946;6.140;2023-07-08T06:03:25;10.23;;;4.45;;
21837;SDS011;11081;45.946;6.140;2023-07-08T06:05:54;7.50;;;4.78;;
21837;SDS011;11081;45.946;6.140;2023-07-08T06:08:22;9.05;;;4.50;;
21837;SDS011;11081;45.946;6.140;2023-07-08T06:10:50;8.98;;;4.47;;
21837;SDS011;11081;45.946;6.140;2023-07-08T06:13:18;8.35;;;4.97;;
21837;SDS011;11081;45.946;6.140;2023-07-08T06:15:46;10.55;;;4.90;;
21837;SDS011;11081;45.946;6.140;2023-07-08T06:18:16;9.07;;;4.70;;
21837;SDS011;11081;45.946;6.140;2023-07-08T06:20:50;10.93;;;4.40;;
21837;SDS011;11081;45.946;6.140;2023-07-08T06:23:19;9.13;;;4.28;;
21837;SDS011;11081;45.946;6.140;2023-07-08T06:25:48;7.43;;;4.68;;
21837;SDS011;11081;45.946;6.140;2023-07-08T06:28:16;8.35;;;4.75;;
21837;SDS011;11081;45.946;6.140;2023-07-08T06:30:44;10.30;;;4.80;;
21837;SDS011;11081;45.946;6.140;2023-07-08T06:33:12;9.90;;;4.15;;
21837;SDS011;11081;45.946;6.140;2023-07-08T06:35:42;8.27;;;4.10;;
21837;SDS011;11081;45.946;6.140;2023-07-08T06:38:10;7.65;;;4.05;;
21837;SDS011;11081;45.946;6.140;2023-07-08T06:40:38;7.95;;;4.05;;
21837;SDS011;11081;45.946;6.140;2023-07-08T06:43:06;9.77;;;4.60;;
21837;SDS011;11081;45.946;6.140;2023-07-08T06:45:40;13.07;;;4.45;;
21837;SDS011;11081;45.946;6.140;2023-07-08T06:48:08;6.60;;;4.32;;
21837;SDS011;11081;45.946;6.140;2023-07-08T06:50:37;8.38;;;4.15;;
21837;SDS011;11081;45.946;6.140;2023-07-08T06:53:06;8.68;;;4.50;;
21837;SDS011;11081;45.946;6.140;2023-07-08T06:55:34;7.63;;;4.32;;
21837;SDS011;11081;45.946;6.140;2023-07-08T06:58:02;8.38;;;4.32;;
21837;SDS011;11081;45.946;6.140;2023-07-08T07:00:30;11.60;;;4.22;;
21837;SDS011;11081;45.946;6.140;2023-07-08T07:02:58;9.38;;;4.47;;
21837;SDS011;11081;45.946;6.140;2023-07-08T07:05:26;9.98;;;4.47;;
21837;SDS011;11081;45.946;6.140;2023-07-08T07:07:55;8.48;;;3.60;;
21837;SDS011;11081;45.946;6.140;2023-07-08T07:10:24;9.27;;;3.72;;
21837;SDS011;11081;45.946;6.140;2023-07-08T07:12:52;10.40;;;4.30;;
21837;SDS011;11081;45.946;6.140;2023-07-08T07:15:20;9.18;;;4.30;;
21837;SDS011;11081;45.946;6.140;2023-07-08T07:17:49;10.57;;;3.90;;
21837;SDS011;11081;45.946;6.140;2023-07-08T07:20:17;9.65;;;3.88;;
21837;SDS011;11081;45.946;6.140;2023-07-08T07:22:45;7.75;;;4.13;;
21837;SDS011;11081;45.946;6.140;2023-07-08T07:25:13;8.80;;;3.78;;
21837;SDS011;11081;45.946;6.140;2023-07-08T07:27:42;8.05;;;4.15;;
21837;SDS011;11081;45.946;6.140;2023-07-08T07:30:11;6.88;;;4.03;;
21837;SDS011;11081;45.946;6.140;2023-07-08T07:32:41;10.88;;;4.00;;
21837;SDS011;11081;45.946;6.140;2023-07-08T07:35:10;8.27;;;4.60;;
21837;SDS011;11081;45.946;6.140;2023-07-08T07:37:40;8.30;;;4.30;;
21837;SDS011;11081;45.946;6.140;2023-07-08T07:40:10;10.88;;;4.72;;
21837;SDS011;11081;45.946;6.140;2023-07-08T07:42:43;10.30;;;5.05;;
21837;SDS011;11081;45.946;6.140;2023-07-08T07:45:13;11.57;;;4.75;;
21837;SDS011;11081;45.946;6.140;2023-07-08T07:47:41;10.70;;;5.18;;
21837;SDS011;11081;45.946;6.140;2023-07-08T07:50:10;8.35;;;4.30;;
21837;SDS011;11081;45.946;6.140;2023-07-08T07:52:38;9.00;;;4.47;;
21837;SDS011;11081;45.946;6.140;2023-07-08T07:55:06;9.27;;;4.35;;
21837;SDS011;11081;45.946;6.140;2023-07-08T07:57:35;9.95;;;4.30;;
21837;SDS011;11081;45.946;6.140;2023-07-08T08:00:05;10.05;;;4.60;;
21837;SDS011;11081;45.946;6.140;2023-07-08T08:02:43;8.80;;;4.18;;
21837;SDS011;11081;45.946;6.140;2023-07-08T08:05:11;8.57;;;4.30;;
21837;SDS011;11081;45.946;6.140;2023-07-08T08:07:39;9.95;;;4.78;;
21837;SDS011;11081;45.946;6.140;2023-07-08T08:10:08;10.88;;;4.82;;
21837;SDS011;11081;45.946;6.140;2023-07-08T08:12:36;13.60;;;4.72;;
21837;SDS011;11081;45.946;6.140;2023-07-08T08:15:20;6.75;;;4.20;;
21837;SDS011;11081;45.946;6.140;2023-07-08T08:17:48;14.43;;;5.00;;
21837;SDS011;11081;45.946;6.140;2023-07-08T08:20:19;8.90;;;4.50;;
21837;SDS011;11081;45.946;6.140;2023-07-08T08:22:48;9.95;;;4.57;;
21837;SDS011;11081;45.946;6.140;2023-07-08T08:25:17;7.80;;;3.85;;
21837;SDS011;11081;45.946;6.140;2023-07-08T08:27:46;9.05;;;5.03;;
21837;SDS011;11081;45.946;6.140;2023-07-08T08:30:14;7.72;;;4.47;;
21837;SDS011;11081;45.946;6.140;2023-07-08T08:32:44;8.85;;;4.32;;
21837;SDS011;11081;45.946;6.140;2023-07-08T08:35:12;8.82;;;4.30;;
21837;SDS011;11081;45.946;6.140;2023-07-08T08:37:40;8.90;;;4.57;;
21837;SDS011;11081;45.946;6.140;2023-07-08T08:40:09;11.50;;;4.97;;
21837;SDS011;11081;45.946;6.140;2023-07-08T08:42:44;8.57;;;4.10;;
21837;SDS011;11081;45.946;6.140;2023-07-08T08:45:19;10.05;;;4.50;;
21837;SDS011;11081;45.946;6.140;2023-07-08T08:47:54;8.95;;;4.10;;
21837;SDS011;11081;45.946;6.140;2023-07-08T08:50:28;12.35;;;4.55;;
21837;SDS011;11081;45.946;6.140;2023-07-08T08:52:59;7.18;;;4.45;;
21837;SDS011;11081;45.946;6.140;2023-07-08T08:55:30;14.27;;;4.43;;
21837;SDS011;11081;45.946;6.140;2023-07-08T08:58:01;12.70;;;4.63;;
21837;SDS011;11081;45.946;6.140;2023-07-08T09:00:37;9.05;;;4.20;;
21837;SDS011;11081;45.946;6.140;2023-07-08T09:03:14;7.05;;;4.03;;
21837;SDS011;11081;45.946;6.140;2023-07-08T09:05:45;15.27;;;4.53;;
21837;SDS011;11081;45.946;6.140;2023-07-08T09:08:15;12.55;;;4.10;;
21837;SDS011;11081;45.946;6.140;2023-07-08T09:10:49;7.45;;;4.00;;
21837;SDS011;11081;45.946;6.140;2023-07-08T09:13:24;9.68;;;4.40;;
21837;SDS011;11081;45.946;6.140;2023-07-08T09:15:58;11.27;;;4.32;;
21837;SDS011;11081;45.946;6.140;2023-07-08T09:18:36;7.97;;;4.47;;
21837;SDS011;11081;45.946;6.140;2023-07-08T09:21:14;7.97;;;4.30;;
21837;SDS011;11081;45.946;6.140;2023-07-08T09:23:47;6.65;;;4.35;;
21837;SDS011;11081;45.946;6.140;2023-07-08T09:26:19;9.35;;;4.38;;
21837;SDS011;11081;45.946;6.140;2023-07-08T09:28:51;8.70;;;4.20;;
21837;SDS011;11081;45.946;6.140;2023-07-08T09:31:21;7.03;;;4.35;;
21837;SDS011;11081;45.946;6.140;2023-07-08T09:33:52;9.32;;;4.78;;
21837;SDS011;11081;45.946;6.140;2023-07-08T09:36:23;9.30;;;4.25;;
21837;SDS011;11081;45.946;6.140;2023-07-08T09:38:52;7.32;;;4.50;;
21837;SDS011;11081;45.946;6.140;2023-07-08T09:41:31;10.55;;;4.82;;
21837;SDS011;11081;45.946;6.140;2023-07-08T09:44:05;10.48;;;4.50;;
21837;SDS011;11081;45.946;6.140;2023-07-08T09:46:44;6.68;;;4.30;;
21837;SDS011;11081;45.946;6.140;2023-07-08T09:49:17;8.60;;;4.13;;
21837;SDS011;11081;45.946;6.140;2023-07-08T09:51:49;10.93;;;4.90;;
21837;SDS011;11081;45.946;6.140;2023-07-08T09:54:19;7.53;;;4.63;;
21837;SDS011;11081;45.946;6.140;2023-07-08T09:56:54;7.72;;;4.60;;
21837;SDS011;11081;45.946;6.140;2023-07-08T09:59:26;8.15;;;4.68;;
21837;SDS011;11081;45.946;6.140;2023-07-08T10:02:02;11.18;;;4.65;;
21837;SDS011;11081;45.946;6.140;2023-07-08T10:04:53;8.60;;;3.90;;
21837;SDS011;11081;45.946;6.140;2023-07-08T10:07:23;10.35;;;4.32;;
21837;SDS011;11081;45.946;6.140;2023-07-08T10:09:51;10.32;;;4.93;;
21837;SDS011;11081;45.946;6.140;2023-07-08T10:12:24;7.30;;;4.28;;
21837;SDS011;11081;45.946;6.140;2023-07-08T10:14:56;11.73;;;4.28;;
21837;SDS011;11081;45.946;6.140;2023-07-08T10:17:27;11.10;;;4.40;;
21837;SDS011;11081;45.946;6.140;2023-07-08T10:19:58;12.25;;;4.55;;
21837;SDS011;11081;45.946;6.140;2023-07-08T10:22:31;9.25;;;4.40;;
21837;SDS011;11081;45.946;6.140;2023-07-08T10:25:11;15.63;;;4.75;;
21837;SDS011;11081;45.946;6.140;2023-07-08T10:27:56;9.40;;;4.10;;
21837;SDS011;11081;45.946;6.140;2023-07-08T10:30:30;10.18;;;4.30;;
21837;SDS011;11081;45.946;6.140;2023-07-08T10:33:12;9.23;;;4.43;;
21837;SDS011;11081;45.946;6.140;2023-07-08T10:36:09;10.38;;;4.32;;
21837;SDS011;11081;45.946;6.140;2023-07-08T10:38:52;7.53;;;4.05;;
21837;SDS011;11081;45.946;6.140;2023-07-08T10:41:35;8.63;;;4.65;;
21837;SDS011;11081;45.946;6.140;2023-07-08T10:44:16;9.93;;;4.28;;
21837;SDS011;11081;45.946;6.140;2023-07-08T10:46:52;12.02;;;4.78;;
21837;SDS011;11081;45.946;6.140;2023-07-08T10:49:31;12.23;;;4.60;;
21837;SDS011;11081;45.946;6.140;2023-07-08T10:52:26;6.85;;;3.80;;
21837;SDS011;11081;45.946;6.140;2023-07-08T10:55:11;8.13;;;3.85;;
21837;SDS011;11081;45.946;6.140;2023-07-08T10:57:53;10.10;;;4.82;;
21837;SDS011;11081;45.946;6.140;2023-07-08T11:00:37;11.55;;;4.93;;
21837;SDS011;11081;45.946;6.140;2023-07-08T11:06:18;8.43;;;3.72;;
21837;SDS011;11081;45.946;6.140;2023-07-08T11:08:52;9.90;;;4.70;;
21837;SDS011;11081;45.946;6.140;2023-07-08T11:11:27;7.25;;;4.13;;
21837;SDS011;11081;45.946;6.140;2023-07-08T11:13:59;8.32;;;4.40;;
21837;SDS011;11081;45.946;6.140;2023-07-08T11:16:38;8.55;;;4.55;;
21837;SDS011;11081;45.946;6.140;2023-07-08T11:19:13;8.50;;;4.28;;
21837;SDS011;11081;45.946;6.140;2023-07-08T11:21:46;8.38;;;4.03;;
21837;SDS011;11081;45.946;6.140;2023-07-08T11:24:21;8.57;;;4.10;;
21837;SDS011;11081;45.946;6.140;2023-07-08T11:26:57;10.57;;;4.70;;
21837;SDS011;11081;45.946;6.140;2023-07-08T11:29:30;10.95;;;4.20;;
21837;SDS011;11081;45.946;6.140;2023-07-08T11:32:04;10.90;;;4.57;;
21837;SDS011;11081;45.946;6.140;2023-07-08T11:34:36;7.45;;;3.67;;
21837;SDS011;11081;45.946;6.140;2023-07-08T11:37:05;6.40;;;3.90;;
21837;SDS011;11081;45.946;6.140;2023-07-08T11:39:40;11.40;;;4.80;;
21837;SDS011;11081;45.946;6.140;2023-07-08T11:42:13;8.85;;;4.15;;
21837;SDS011;11081;45.946;6.140;2023-07-08T11:44:46;8.95;;;4.32;;
21837;SDS011;11081;45.946;6.140;2023-07-08T11:47:19;11.48;;;4.45;;
21837;SDS011;11081;45.946;6.140;2023-07-08T11:49:52;7.35;;;3.30;;
21837;SDS011;11081;45.946;6.140;2023-07-08T11:52:22;9.25;;;4.25;;
21837;SDS011;11081;45.946;6.140;2023-07-08T11:54:56;8.40;;;4.10;;
21837;SDS011;11081;45.946;6.140;2023-07-08T11:57:30;10.05;;;4.05;;
21837;SDS011;11081;45.946;6.140;2023-07-08T12:02:52;7.75;;;3.90;;
21837;SDS011;11081;45.946;6.140;2023-07-08T12:05:29;13.55;;;4.05;;
21837;SDS011;11081;45.946;6.140;2023-07-08T12:07:59;7.43;;;4.22;;
21837;SDS011;11081;45.946;6.140;2023-07-08T12:10:33;5.90;;;3.78;;
21837;SDS011;11081;45.946;6.140;2023-07-08T12:13:05;7.63;;;3.95;;
21837;SDS011;11081;45.946;6.140;2023-07-08T12:15:39;10.25;;;3.22;;
21837;SDS011;11081;45.946;6.140;2023-07-08T12:18:10;12.93;;;4.10;;
21837;SDS011;11081;45.946;6.140;2023-07-08T12:20:43;9.63;;;3.78;;
21837;SDS011;11081;45.946;6.140;2023-07-08T12:23:14;9.43;;;3.88;;
21837;SDS011;11081;45.946;6.140;2023-07-08T12:25:46;7.05;;;3.60;;
21837;SDS011;11081;45.946;6.140;2023-07-08T12:28:15;8.00;;;3.55;;
21837;SDS011;11081;45.946;6.140;2023-07-08T12:30:43;10.07;;;3.33;;
21837;SDS011;11081;45.946;6.140;2023-07-08T12:33:15;5.35;;;3.13;;
21837;SDS011;11081;45.946;6.140;2023-07-08T12:35:45;13.45;;;3.85;;
21837;SDS011;11081;45.946;6.140;2023-07-08T12:38:19;8.40;;;3.70;;
21837;SDS011;11081;45.946;6.140;2023-07-08T12:40:52;7.35;;;3.60;;
21837;SDS011;11081;45.946;6.140;2023-07-08T12:43:20;12.95;;;3.75;;
21837;SDS011;11081;45.946;6.140;2023-07-08T12:45:48;5.18;;;3.30;;
21837;SDS011;11081;45.946;6.140;2023-07-08T12:48:16;7.38;;;3.47;;
21837;SDS011;11081;45.946;6.140;2023-07-08T12:50:44;9.57;;;3.67;;
21837;SDS011;11081;45.946;6.140;2023-07-08T12:53:12;11.57;;;4.35;;
21837;SDS011;11081;45.946;6.140;2023-07-08T12:55:41;8.75;;;3.42;;
21837;SDS011;11081;45.946;6.140;2023-07-08T12:58:16;7.65;;;3.38;;
21837;SDS011;11081;45.946;6.140;2023-07-08T13:00:52;8.63;;;3.67;;
21837;SDS011;11081;45.946;6.140;2023-07-08T13:03:21;5.57;;;3.05;;
21837;SDS011;11081;45.946;6.140;2023-07-08T13:05:52;10.32;;;3.45;;
21837;SDS011;11081;45.946;6.140;2023-07-08T13:08:23;8.73;;;3.20;;
21837;SDS011;11081;45.946;6.140;2023-07-08T13:10:54;21.73;;;4.45;;
21837;SDS011;11081;45.946;6.140;2023-07-08T13:13:28;13.43;;;4.13;;
21837;SDS011;11081;45.946;6.140;2023-07-08T13:15:58;35.65;;;4.07;;
21837;SDS011;11081;45.946;6.140;2023-07-08T13:18:33;9.20;;;3.40;;
21837;SDS011;11081;45.946;6.140;2023-07-08T13:21:03;10.18;;;3.38;;
21837;SDS011;11081;45.946;6.140;2023-07-08T13:23:33;7.43;;;2.95;;
21837;SDS011;11081;45.946;6.140;2023-07-08T13:26:11;6.20;;;3.40;;
21837;SDS011;11081;45.946;6.140;2023-07-08T13:28:42;5.25;;;3.03;;
21837;SDS011;11081;45.946;6.140;2023-07-08T13:31:15;6.45;;;3.00;;
21837;SDS011;11081;45.946;6.140;2023-07-08T13:33:50;10.40;;;3.22;;
21837;SDS011;11081;45.946;6.140;2023-07-08T13:36:22;11.68;;;3.33;;
21837;SDS011;11081;45.946;6.140;2023-07-08T13:38:51;7.03;;;3.35;;
21837;SDS011;11081;45.946;6.140;2023-07-08T13:41:20;13.95;;;3.70;;
21837;SDS011;11081;45.946;6.140;2023-07-08T13:43:51;6.72;;;2.70;;
21837;SDS011;11081;45.946;6.140;2023-07-08T13:46:28;7.90;;;3.10;;
21837;SDS011;11081;45.946;6.140;2023-07-08T13:49:00;6.10;;;3.20;;
21837;SDS011;11081;45.946;6.140;2023-07-08T13:51:30;9.70;;;3.75;;
21837;SDS011;11081;45.946;6.140;2023-07-08T13:54:00;6.75;;;3.10;;
21837;SDS011;11081;45.946;6.140;2023-07-08T13:56:36;10.57;;;3.72;;
21837;SDS011;11081;45.946;6.140;2023-07-08T13:59:06;11.45;;;3.05;;
21837;SDS011;11081;45.946;6.140;2023-07-08T14:01:36;6.63;;;3.13;;
21837;SDS011;11081;45.946;6.140;2023-07-08T14:04:07;11.23;;;3.88;;
21837;SDS011;11081;45.946;6.140;2023-07-08T14:06:38;11.80;;;3.60;;
21837;SDS011;11081;45.946;6.140;2023-07-08T14:09:09;6.60;;;3.25;;
21837;SDS011;11081;45.946;6.140;2023-07-08T14:11:40;11.52;;;3.20;;
21837;SDS011;11081;45.946;6.140;2023-07-08T14:14:10;8.38;;;3.40;;
21837;SDS011;11081;45.946;6.140;2023-07-08T14:16:39;9.55;;;4.18;;
21837;SDS011;11081;45.946;6.140;2023-07-08T14:19:12;7.63;;;3.72;;
21837;SDS011;11081;45.946;6.140;2023-07-08T14:21:42;12.95;;;4.07;;
21837;SDS011;11081;45.946;6.140;2023-07-08T14:24:11;9.02;;;3.28;;
21837;SDS011;11081;45.946;6.140;2023-07-08T14:26:41;9.48;;;3.38;;
21837;SDS011;11081;45.946;6.140;2023-07-08T14:29:11;7.05;;;3.78;;
21837;SDS011;11081;45.946;6.140;2023-07-08T14:31:40;9.07;;;3.58;;
21837;SDS011;11081;45.946;6.140;2023-07-08T14:34:09;5.25;;;3.60;;
21837;SDS011;11081;45.946;6.140;2023-07-08T14:36:40;9.25;;;3.47;;
21837;SDS011;11081;45.946;6.140;2023-07-08T14:39:09;11.70;;;3.85;;
21837;SDS011;11081;45.946;6.140;2023-07-08T14:41:39;7.57;;;3.38;;
21837;SDS011;11081;45.946;6.140;2023-07-08T14:44:17;9.23;;;3.40;;
21837;SDS011;11081;45.946;6.140;2023-07-08T14:46:48;11.60;;;3.72;;
21837;SDS011;11081;45.946;6.140;2023-07-08T14:49:17;7.78;;;3.53;;
21837;SDS011;11081;45.946;6.140;2023-07-08T14:51:46;6.25;;;3.30;;
21837;SDS011;11081;45.946;6.140;2023-07-08T14:54:14;6.57;;;3.38;;
21837;SDS011;11081;45.946;6.140;2023-07-08T14:56:43;8.57;;;3.53;;
21837;SDS011;11081;45.946;6.140;2023-07-08T14:59:11;9.85;;;3.60;;
21837;SDS011;11081;45.946;6.140;2023-07-08T15:01:44;7.55;;;3.30;;
21837;SDS011;11081;45.946;6.140;2023-07-08T15:04:15;5.65;;;3.55;;
21837;SDS011;11081;45.946;6.140;2023-07-08T15:06:44;9.63;;;3.55;;
21837;SDS011;11081;45.946;6.140;2023-07-08T15:09:14;11.80;;;3.33;;
21837;SDS011;11081;45.946;6.140;2023-07-08T15:11:43;7.75;;;3.72;;
21837;SDS011;11081;45.946;6.140;2023-07-08T15:14:16;10.82;;;3.50;;